Time;durP1;ratioP1;P1;durP2;ratioP2;P2;SDS_P1;SDS_P2;PMS_P1;PMS_P2;Temp;Humidity;BMP_temperature;BMP_pressure;BME280_temperature;BME280_humidity;BME280_pressure;Samples;Min_cycle;Max_cycle;Signal;HPM_P1;HPM_P2
2021/08/27 00:04:32;;;;;;;2.80;0.32;;;;;;;;;;10284757;28;20493;-66
2021/08/27 00:09:30;;;;;;;2.63;0.80;;;;;;;;;;10272524;28;20033;-65
2021/08/27 00:14:27;;;;;;;0.43;0.43;;;;;;;;;;10277474;28;20351;-66
2021/08/27 00:19:25;;;;;;;1.40;0.73;;;;;;;;;;10277172;28;20041;-66
2021/08/27 00:24:22;;;;;;;1.80;0.57;;;;;;;;;;10276710;28;20033;-64
2021/08/27 00:29:19;;;;;;;4.17;0.80;;;;;;;;;;10283320;28;20045;-65
2021/08/27 00:34:17;;;;;;;1.87;0.80;;;;;;;;;;10291080;28;20116;-66
2021/08/27 00:39:14;;;;;;;0.83;0.60;;;;;;;;;;10281971;28;20075;-65
2021/08/27 00:44:11;;;;;;;1.97;0.67;;;;;;;;;;10283071;28;20477;-65
2021/08/27 00:49:09;;;;;;;1.83;1.10;;;;;;;;;;10278070;28;20493;-64
2021/08/27 00:54:06;;;;;;;1.33;0.70;;;;;;;;;;10282221;28;20045;-64
2021/08/27 00:59:04;;;;;;;3.97;0.67;;;;;;;;;;10281590;28;20107;-65
2021/08/27 01:04:01;;;;;;;6.23;0.97;;;;;;;;;;10280560;28;20044;-64
2021/08/27 01:09:00;;;;;;;2.17;0.80;;;;;;;;;;10288876;28;20033;-67
2021/08/27 01:14:01;;;;;;;1.92;1.02;;;;;;;;;;10263364;28;20044;-68
2021/08/27 01:19:08;;;;;;;0.75;0.35;;;;;;;;;;10254839;28;20037;-65
2021/08/27 01:24:07;;;;;;;1.15;0.47;;;;;;;;;;10271147;28;20089;-64
2021/08/27 01:29:07;;;;;;;0.28;0.28;;;;;;;;;;10268334;28;20373;-65
2021/08/27 01:34:23;;;;;;;1.42;0.50;;;;;;;;;;10281980;28;20037;-64
2021/08/27 01:39:21;;;;;;;5.07;0.98;;;;;;;;;;10274986;28;20064;-65
2021/08/27 01:44:21;;;;;;;1.38;0.40;;;;;;;;;;10281859;28;20042;-66
2021/08/27 01:49:19;;;;;;;1.75;0.75;;;;;;;;;;10307862;28;20041;-64
2021/08/27 01:54:17;;;;;;;8.20;0.73;;;;;;;;;;10282714;28;20069;-64
2021/08/27 01:59:14;;;;;;;4.00;0.77;;;;;;;;;;10288507;28;20053;-63
2021/08/27 02:04:13;;;;;;;3.17;0.47;;;;;;;;;;10295658;28;20025;-64
2021/08/27 02:09:12;;;;;;;2.95;0.50;;;;;;;;;;10270928;28;20048;-63
2021/08/27 02:14:09;;;;;;;2.95;0.85;;;;;;;;;;10277286;28;20025;-64
2021/08/27 02:19:07;;;;;;;1.10;0.43;;;;;;;;;;10277944;28;20045;-64
2021/08/27 02:24:08;;;;;;;5.47;0.93;;;;;;;;;;10252375;28;20025;-67
2021/08/27 02:29:05;;;;;;;0.73;0.43;;;;;;;;;;10285944;28;20442;-64
2021/08/27 02:34:04;;;;;;;1.07;0.50;;;;;;;;;;10275348;28;20037;-63
2021/08/27 02:39:02;;;;;;;1.48;0.40;;;;;;;;;;10282782;28;20800;-65
2021/08/27 02:43:59;;;;;;;1.17;0.57;;;;;;;;;;10278082;28;20033;-65
2021/08/27 02:48:57;;;;;;;2.27;0.33;;;;;;;;;;10293332;28;20038;-64
2021/08/27 02:53:55;;;;;;;0.83;0.33;;;;;;;;;;10296255;28;20261;-64
2021/08/27 02:58:53;;;;;;;3.33;0.90;;;;;;;;;;10317152;28;20025;-64
2021/08/27 03:04:04;;;;;;;3.67;1.17;;;;;;;;;;10343127;28;20116;-63
2021/08/27 03:09:05;;;;;;;8.70;0.75;;;;;;;;;;10351221;28;20116;-63
2021/08/27 03:14:05;;;;;;;2.15;0.73;;;;;;;;;;10342304;28;20033;-64
2021/08/27 03:19:05;;;;;;;2.67;0.85;;;;;;;;;;10316423;28;20048;-63
2021/08/27 03:24:20;;;;;;;4.28;1.35;;;;;;;;;;10315666;28;20037;-65
2021/08/27 03:29:19;;;;;;;7.68;0.80;;;;;;;;;;10268291;28;20080;-64
2021/08/27 03:34:16;;;;;;;;;;;;;;;;;;10310894;28;20044;-64
2021/08/27 03:39:13;;;;;;;0.20;0.20;;;;;;;;;;10313881;28;19938;-64
2021/08/27 03:44:14;;;;;;;2.03;1.23;;;;;;;;;;10331345;28;20067;-66
2021/08/27 03:49:12;;;;;;;3.72;0.82;;;;;;;;;;10344893;28;20052;-66
2021/08/27 03:54:09;;;;;;;0.50;0.50;;;;;;;;;;10348474;28;20044;-65
2021/08/27 03:59:07;;;;;;;3.17;0.70;;;;;;;;;;10330567;28;20044;-64
2021/08/27 04:04:06;;;;;;;4.67;1.17;;;;;;;;;;10341694;28;20025;-66
2021/08/27 04:09:04;;;;;;;0.90;0.60;;;;;;;;;;10339465;28;20048;-67
2021/08/27 04:14:01;;;;;;;0.43;0.30;;;;;;;;;;10329940;28;20037;-67
2021/08/27 04:18:58;;;;;;;3.87;0.97;;;;;;;;;;10313078;28;20168;-65
2021/08/27 04:23:56;;;;;;;0.57;0.33;;;;;;;;;;10324314;28;20133;-64
2021/08/27 04:28:53;;;;;;;1.90;0.90;;;;;;;;;;10345378;28;20343;-64
2021/08/27 04:33:51;;;;;;;3.63;0.60;;;;;;;;;;10339494;28;20155;-66
2021/08/27 04:38:50;;;;;;;5.23;0.50;;;;;;;;;;10324537;28;20033;-65
2021/08/27 04:43:50;;;;;;;4.15;0.60;;;;;;;;;;10318122;28;20044;-65
2021/08/27 04:48:47;;;;;;;3.38;0.50;;;;;;;;;;10288725;28;20033;-65
2021/08/27 04:53:45;;;;;;;4.17;0.90;;;;;;;;;;10346841;28;20045;-67
2021/08/27 04:58:42;;;;;;;3.60;1.37;;;;;;;;;;10296639;28;20602;-63
2021/08/27 05:03:39;;;;;;;1.40;0.57;;;;;;;;;;10252039;28;20124;-65
2021/08/27 05:08:37;;;;;;;0.67;0.50;;;;;;;;;;10271590;28;20050;-63
2021/08/27 05:13:34;;;;;;;3.40;0.80;;;;;;;;;;10261993;28;20461;-64
2021/08/27 05:18:32;;;;;;;1.07;0.93;;;;;;;;;;10280585;28;20045;-65
2021/08/27 05:23:29;;;;;;;2.63;1.23;;;;;;;;;;10278809;28;20052;-64
2021/08/27 05:28:27;;;;;;;3.07;0.73;;;;;;;;;;10271991;28;20133;-65
2021/08/27 05:33:24;;;;;;;2.57;1.13;;;;;;;;;;10269347;28;20106;-64
2021/08/27 05:38:21;;;;;;;0.87;0.47;;;;;;;;;;10278591;28;20518;-64
2021/08/27 05:43:19;;;;;;;2.77;1.00;;;;;;;;;;10261169;28;20491;-64
2021/08/27 05:48:16;;;;;;;2.80;0.57;;;;;;;;;;10267917;28;20072;-67
2021/08/27 05:53:14;;;;;;;3.00;0.60;;;;;;;;;;10278661;28;20199;-64
2021/08/27 05:58:11;;;;;;;4.07;1.00;;;;;;;;;;10276325;28;20371;-64
2021/08/27 06:03:09;;;;;;;3.40;1.10;;;;;;;;;;10275494;28;20305;-66
2021/08/27 06:08:06;;;;;;;2.37;0.77;;;;;;;;;;10267586;28;20038;-64
2021/08/27 06:13:04;;;;;;;6.40;0.97;;;;;;;;;;10270423;28;20474;-64
2021/08/27 06:18:01;;;;;;;7.97;1.20;;;;;;;;;;10258950;28;20044;-65
2021/08/27 06:22:58;;;;;;;1.67;0.87;;;;;;;;;;10266390;28;20419;-64
2021/08/27 06:27:56;;;;;;;0.40;0.40;;;;;;;;;;10273329;28;20061;-66
2021/08/27 06:32:53;;;;;;;3.30;0.97;;;;;;;;;;10287495;28;20046;-64
2021/08/27 06:43:07;;;;;;;1.80;0.93;;;;;;;;;;10279664;28;20195;-65
2021/08/27 06:48:04;;;;;;;1.50;0.67;;;;;;;;;;10280540;28;20038;-63
2021/08/27 06:53:02;;;;;;;1.27;0.77;;;;;;;;;;10279869;28;20622;-63
2021/08/27 06:57:59;;;;;;;2.27;0.87;;;;;;;;;;10281034;28;20030;-64
2021/08/27 07:02:57;;;;;;;4.23;1.10;;;;;;;;;;10276974;28;20060;-64
2021/08/27 07:07:54;;;;;;;3.53;0.97;;;;;;;;;;10269359;28;20033;-62
2021/08/27 07:12:52;;;;;;;5.20;1.20;;;;;;;;;;10262556;28;20304;-62
2021/08/27 07:17:51;;;;;;;1.23;0.63;;;;;;;;;;10264811;28;20033;-62
2021/08/27 07:22:48;;;;;;;1.75;1.05;;;;;;;;;;10275236;28;20121;-61
2021/08/27 07:27:47;;;;;;;2.40;1.20;;;;;;;;;;10257422;28;20113;-65
2021/08/27 07:32:44;;;;;;;;;;;;;;;;;;10258571;28;20080;-65
2021/08/27 07:37:42;;;;;;;2.78;0.75;;;;;;;;;;10263887;28;19913;-65
2021/08/27 07:42:40;;;;;;;1.73;0.60;;;;;;;;;;10266840;28;20116;-64
2021/08/27 07:47:37;;;;;;;2.05;0.80;;;;;;;;;;10285366;28;20125;-66
2021/08/27 07:52:35;;;;;;;2.73;0.83;;;;;;;;;;10288424;28;20026;-64
2021/08/27 07:57:33;;;;;;;1.27;0.60;;;;;;;;;;10280777;28;20030;-64
2021/08/27 08:02:30;;;;;;;1.60;1.00;;;;;;;;;;10281396;28;20048;-64
2021/08/27 08:07:27;;;;;;;0.50;0.50;;;;;;;;;;10276772;28;20506;-64
2021/08/27 08:12:25;;;;;;;1.67;0.73;;;;;;;;;;10277774;28;20502;-66
2021/08/27 08:17:23;;;;;;;1.70;0.75;;;;;;;;;;10271078;28;20076;-64
2021/08/27 08:22:21;;;;;;;2.70;0.60;;;;;;;;;;10284992;28;20041;-64
2021/08/27 08:27:19;;;;;;;5.93;1.02;;;;;;;;;;10285315;28;20037;-64
2021/08/27 08:32:16;;;;;;;2.17;0.87;;;;;;;;;;10273104;28;20068;-63
2021/08/27 08:37:13;;;;;;;0.53;0.30;;;;;;;;;;10248481;28;20034;-62
2021/08/27 08:42:11;;;;;;;1.53;0.60;;;;;;;;;;10283350;28;20087;-64
2021/08/27 08:47:10;;;;;;;3.00;0.83;;;;;;;;;;10286661;28;20033;-66
2021/08/27 08:52:08;;;;;;;1.15;0.95;;;;;;;;;;10264088;28;20135;-62
2021/08/27 08:57:06;;;;;;;1.00;0.65;;;;;;;;;;10285630;28;20397;-63
2021/08/27 09:02:04;;;;;;;0.73;0.40;;;;;;;;;;10266340;28;20048;-64
2021/08/27 09:07:01;;;;;;;2.42;0.65;;;;;;;;;;10263008;28;20418;-66
2021/08/27 09:11:59;;;;;;;4.37;1.47;;;;;;;;;;10252187;28;20044;-62
2021/08/27 09:17:02;;;;;;;4.05;1.20;;;;;;;;;;10282724;28;20120;-64
2021/08/27 09:21:59;;;;;;;1.23;0.80;;;;;;;;;;10244287;28;20037;-63
2021/08/27 09:26:57;;;;;;;1.73;0.80;;;;;;;;;;10237745;28;20042;-64
2021/08/27 09:31:54;;;;;;;2.73;0.80;;;;;;;;;;10269660;28;20560;-62
2021/08/27 09:36:56;;;;;;;1.20;0.90;;;;;;;;;;10263977;28;20052;-64
2021/08/27 09:41:57;;;;;;;1.35;0.65;;;;;;;;;;10262961;28;20041;-61
2021/08/27 09:46:54;;;;;;;1.00;0.55;;;;;;;;;;10258443;28;20443;-62
2021/08/27 09:51:53;;;;;;;2.72;0.70;;;;;;;;;;10248179;28;20529;-62
2021/08/27 09:56:53;;;;;;;1.70;0.52;;;;;;;;;;10242368;28;20404;-61
2021/08/27 10:01:50;;;;;;;2.38;0.80;;;;;;;;;;10262559;28;20554;-63
2021/08/27 10:06:48;;;;;;;2.97;0.90;;;;;;;;;;10261073;28;20158;-63
2021/08/27 10:11:48;;;;;;;2.90;0.73;;;;;;;;;;10258934;28;20033;-65
2021/08/27 10:16:46;;;;;;;1.60;1.10;;;;;;;;;;10249349;28;20494;-64
2021/08/27 10:21:50;;;;;;;3.38;0.90;;;;;;;;;;10226997;28;20041;-66
2021/08/27 10:26:47;;;;;;;1.88;0.77;;;;;;;;;;10244463;28;20702;-64
2021/08/27 10:31:46;;;;;;;3.80;1.13;;;;;;;;;;10247140;28;20030;-64
2021/08/27 10:36:47;;;;;;;3.63;0.73;;;;;;;;;;10253908;28;20034;-63
2021/08/27 10:41:45;;;;;;;1.67;0.80;;;;;;;;;;10236847;28;20135;-64
2021/08/27 10:46:48;;;;;;;4.00;0.93;;;;;;;;;;10252606;28;20037;-64
2021/08/27 10:51:46;;;;;;;3.00;0.73;;;;;;;;;;10255212;28;20034;-63
2021/08/27 10:56:44;;;;;;;1.42;1.00;;;;;;;;;;10239946;28;20045;-66
2021/08/27 11:01:42;;;;;;;3.67;0.73;;;;;;;;;;10245850;28;20045;-65
2021/08/27 11:06:44;;;;;;;2.97;0.68;;;;;;;;;;10248303;28;20041;-65
2021/08/27 11:11:41;;;;;;;2.38;0.70;;;;;;;;;;10257845;28;20092;-65
2021/08/27 11:16:39;;;;;;;1.00;0.70;;;;;;;;;;10276266;28;20501;-65
2021/08/27 11:21:39;;;;;;;0.80;0.50;;;;;;;;;;10252303;28;20562;-66
2021/08/27 11:26:41;;;;;;;3.38;0.65;;;;;;;;;;10266985;28;20633;-64
2021/08/27 11:31:42;;;;;;;3.40;0.63;;;;;;;;;;10285950;28;20613;-63
2021/08/27 11:36:40;;;;;;;3.58;1.00;;;;;;;;;;10282046;28;20123;-64
2021/08/27 11:41:37;;;;;;;;;;;;;;;;;;10292018;28;20037;-64
2021/08/27 11:46:36;;;;;;;2.83;0.65;;;;;;;;;;10276878;28;19919;-65
2021/08/27 11:51:36;;;;;;;2.22;1.13;;;;;;;;;;10268647;28;20034;-62
2021/08/27 11:56:33;;;;;;;3.25;0.73;;;;;;;;;;10289646;28;20526;-63
2021/08/27 12:01:31;;;;;;;1.27;0.70;;;;;;;;;;10293710;28;20045;-69
2021/08/27 12:06:28;;;;;;;4.13;1.23;;;;;;;;;;10288416;28;20139;-65
2021/08/27 12:11:32;;;;;;;5.13;1.10;;;;;;;;;;10263605;28;20144;-65
2021/08/27 12:16:31;;;;;;;2.95;1.00;;;;;;;;;;10288897;28;20052;-67
2021/08/27 12:21:29;;;;;;;2.80;1.08;;;;;;;;;;10259903;28;20037;-64
2021/08/27 12:26:29;;;;;;;0.95;0.80;;;;;;;;;;10271190;28;20034;-63
2021/08/27 12:31:39;;;;;;;3.60;0.90;;;;;;;;;;10262381;28;20025;-62
2021/08/27 12:36:38;;;;;;;3.00;0.68;;;;;;;;;;10272465;28;20649;-63
2021/08/27 12:41:35;;;;;;;2.28;0.77;;;;;;;;;;10242335;28;20056;-65
2021/08/27 12:46:33;;;;;;;1.38;0.63;;;;;;;;;;10267422;28;20036;-63
2021/08/27 12:51:30;;;;;;;2.08;0.70;;;;;;;;;;10279066;28;20075;-63
2021/08/27 12:56:28;;;;;;;0.93;0.73;;;;;;;;;;10273821;28;20483;-65
2021/08/27 13:01:26;;;;;;;1.67;0.82;;;;;;;;;;10252430;28;20788;-64
2021/08/27 13:06:35;;;;;;;2.75;0.63;;;;;;;;;;10254866;28;20057;-66
2021/08/27 13:11:32;;;;;;;;;;;;;;;;;;10275278;28;20037;-65
2021/08/27 13:16:30;;;;;;;2.53;0.60;;;;;;;;;;10258164;28;20370;-65
2021/08/27 13:21:34;;;;;;;1.20;0.50;;;;;;;;;;10240922;28;20132;-65
2021/08/27 13:26:32;;;;;;;2.05;0.60;;;;;;;;;;10256445;28;20135;-68
2021/08/27 13:31:30;;;;;;;1.58;0.52;;;;;;;;;;10272628;28;20136;-65
2021/08/27 13:36:27;;;;;;;2.25;0.93;;;;;;;;;;10244450;28;20064;-64
2021/08/27 13:41:25;;;;;;;0.85;0.35;;;;;;;;;;10268199;28;20045;-65
2021/08/27 13:46:22;;;;;;;;;;;;;;;;;;10264901;28;20033;-66
2021/08/27 13:51:19;;;;;;;1.17;0.75;;;;;;;;;;10264100;28;19928;-63
2021/08/27 13:56:17;;;;;;;;;;;;;;;;;;10263602;28;20041;-65
2021/08/27 14:01:14;;;;;;;0.25;0.25;;;;;;;;;;10265450;28;19917;-63
2021/08/27 14:06:11;;;;;;;;;;;;;;;;;;10277412;28;20506;-63
2021/08/27 14:11:09;;;;;;;0.90;0.17;;;;;;;;;;10276440;28;20286;-63
2021/08/27 14:16:07;;;;;;;;;;;;;;;;;;10278205;28;20034;-68
2021/08/27 14:21:05;;;;;;;4.47;0.90;;;;;;;;;;10262357;28;19921;-64
2021/08/27 14:26:02;;;;;;;;;;;;;;;;;;10272561;28;20029;-64
2021/08/27 14:31:00;;;;;;;0.60;0.40;;;;;;;;;;10278614;28;19913;-64
2021/08/27 14:35:57;;;;;;;2.33;0.40;;;;;;;;;;10247529;28;20113;-64
2021/08/27 14:40:55;;;;;;;1.95;0.50;;;;;;;;;;10261858;28;20050;-64
2021/08/27 14:45:52;;;;;;;;;;;;;;;;;;10250177;28;20045;-65
2021/08/27 14:50:51;;;;;;;1.10;0.52;;;;;;;;;;10266030;28;19913;-64
2021/08/27 14:55:49;;;;;;;0.45;0.30;;;;;;;;;;10276476;28;20053;-66
2021/08/27 15:00:46;;;;;;;;;;;;;;;;;;10271380;28;20034;-63
2021/08/27 15:05:43;;;;;;;0.98;0.57;;;;;;;;;;10276828;28;20397;-65
2021/08/27 15:10:42;;;;;;;0.53;0.53;;;;;;;;;;10256939;28;20033;-67
2021/08/27 15:15:40;;;;;;;0.38;0.28;;;;;;;;;;10242032;28;20499;-64
2021/08/27 15:20:38;;;;;;;1.03;0.33;;;;;;;;;;10272157;28;20411;-66
2021/08/27 15:25:35;;;;;;;0.73;0.50;;;;;;;;;;10278307;28;20045;-65
2021/08/27 15:30:33;;;;;;;0.40;0.40;;;;;;;;;;10281846;28;20029;-62
2021/08/27 15:35:30;;;;;;;1.00;0.60;;;;;;;;;;10274525;28;20281;-63
2021/08/27 15:40:28;;;;;;;2.10;0.38;;;;;;;;;;10273643;28;20450;-62
2021/08/27 15:45:25;;;;;;;2.10;0.40;;;;;;;;;;10277305;28;20032;-64
2021/08/27 15:50:22;;;;;;;1.20;0.37;;;;;;;;;;10283576;28;20029;-64
2021/08/27 15:55:20;;;;;;;1.75;0.20;;;;;;;;;;10252197;28;20269;-64
2021/08/27 16:00:18;;;;;;;0.87;0.40;;;;;;;;;;10265122;28;20505;-63
2021/08/27 16:05:15;;;;;;;1.30;0.50;;;;;;;;;;10275259;28;20053;-64
2021/08/27 16:10:12;;;;;;;2.50;0.67;;;;;;;;;;10270329;28;20042;-64
2021/08/27 16:15:10;;;;;;;0.32;0.30;;;;;;;;;;10272703;28;20038;-65
2021/08/27 16:20:08;;;;;;;1.15;0.60;;;;;;;;;;10261748;28;20045;-62
2021/08/27 16:25:06;;;;;;;0.30;0.30;;;;;;;;;;10272007;28;20529;-65
2021/08/27 16:30:03;;;;;;;0.30;0.10;;;;;;;;;;10260904;28;20367;-64
2021/08/27 16:35:01;;;;;;;0.73;0.35;;;;;;;;;;10274779;28;20036;-64
2021/08/27 16:39:59;;;;;;;0.57;0.35;;;;;;;;;;10268760;28;20040;-67
2021/08/27 16:44:56;;;;;;;1.17;0.20;;;;;;;;;;10269590;28;20131;-63
2021/08/27 16:49:53;;;;;;;0.90;0.33;;;;;;;;;;10278438;28;20083;-65
2021/08/27 16:54:51;;;;;;;0.30;0.27;;;;;;;;;;10270092;28;20478;-66
2021/08/27 16:59:49;;;;;;;0.40;0.40;;;;;;;;;;10238925;28;20314;-63
2021/08/27 17:04:46;;;;;;;1.58;0.40;;;;;;;;;;10264287;28;20060;-68
2021/08/27 17:09:43;;;;;;;;;;;;;;;;;;10252066;28;20076;-64
2021/08/27 17:14:41;;;;;;;0.10;0.10;;;;;;;;;;10255265;28;19913;-63
2021/08/27 17:19:39;;;;;;;;;;;;;;;;;;10245194;28;20048;-63
2021/08/27 17:24:36;;;;;;;0.65;0.45;;;;;;;;;;10256635;28;20200;-64
2021/08/27 17:29:33;;;;;;;;;;;;;;;;;;10272367;28;20410;-63
2021/08/27 17:34:31;;;;;;;0.52;0.35;;;;;;;;;;10260821;28;19964;-62
2021/08/27 17:39:28;;;;;;;;;;;;;;;;;;10277411;28;20034;-64
2021/08/27 17:44:26;;;;;;;2.08;0.57;;;;;;;;;;10280569;28;19920;-63
2021/08/27 17:49:24;;;;;;;;;;;;;;;;;;10280968;28;20471;-63
2021/08/27 17:54:24;;;;;;;0.20;0.20;;;;;;;;;;10295214;28;19913;-64
2021/08/27 17:59:21;;;;;;;1.48;0.50;;;;;;;;;;10237870;28;20112;-63
2021/08/27 18:04:18;;;;;;;0.60;0.47;;;;;;;;;;10267124;28;20482;-62
2021/08/27 18:09:16;;;;;;;1.30;0.63;;;;;;;;;;10260049;28;20045;-63
2021/08/27 18:14:13;;;;;;;1.50;0.57;;;;;;;;;;10286747;28;20041;-63
2021/08/27 18:19:11;;;;;;;0.40;0.40;;;;;;;;;;10273643;28;20128;-63
2021/08/27 18:24:09;;;;;;;0.33;0.33;;;;;;;;;;10267701;28;20125;-65
2021/08/27 18:29:06;;;;;;;;;;;;;;;;;;10263963;28;20042;-64
2021/08/27 18:34:04;;;;;;;1.08;0.30;;;;;;;;;;10261707;28;19959;-62
2021/08/27 18:39:02;;;;;;;0.55;0.28;;;;;;;;;;10257994;28;20037;-62
2021/08/27 18:43:59;;;;;;;2.73;0.43;;;;;;;;;;10278821;28;20030;-63
2021/08/27 18:48:57;;;;;;;4.53;0.87;;;;;;;;;;10284322;28;20410;-63
2021/08/27 18:53:55;;;;;;;0.40;0.40;;;;;;;;;;10264489;28;20594;-63
2021/08/27 18:58:53;;;;;;;0.52;0.50;;;;;;;;;;10243423;28;20046;-62
2021/08/27 19:03:50;;;;;;;0.90;0.40;;;;;;;;;;10243202;28;20026;-64
2021/08/27 19:08:47;;;;;;;1.87;0.60;;;;;;;;;;10269812;28;20041;-62
2021/08/27 19:13:45;;;;;;;1.97;0.90;;;;;;;;;;10276924;28;20038;-63
2021/08/27 19:18:43;;;;;;;1.47;0.50;;;;;;;;;;10248678;28;20029;-63
2021/08/27 19:23:41;;;;;;;1.73;0.70;;;;;;;;;;10242328;28;20048;-61
2021/08/27 19:28:39;;;;;;;0.75;0.50;;;;;;;;;;10275960;28;20566;-62
2021/08/27 19:33:36;;;;;;;0.90;0.40;;;;;;;;;;10257100;28;20124;-62
2021/08/27 19:38:34;;;;;;;2.23;0.50;;;;;;;;;;10255079;28;20084;-65
2021/08/27 19:43:31;;;;;;;1.87;0.77;;;;;;;;;;10264619;28;20034;-66
2021/08/27 19:48:29;;;;;;;1.77;0.50;;;;;;;;;;10284256;28;20042;-64
2021/08/27 19:53:26;;;;;;;1.65;0.50;;;;;;;;;;10284410;28;20034;-62
2021/08/27 19:58:24;;;;;;;2.00;0.50;;;;;;;;;;10284301;28;20360;-61
2021/08/27 20:03:23;;;;;;;0.97;0.57;;;;;;;;;;10286824;28;20088;-63
2021/08/27 20:08:20;;;;;;;0.35;0.30;;;;;;;;;;10265852;28;20034;-62
2021/08/27 20:13:18;;;;;;;1.07;0.47;;;;;;;;;;10288094;28;20448;-64
2021/08/27 20:18:15;;;;;;;1.40;0.70;;;;;;;;;;10253482;28;20037;-61
2021/08/27 20:23:13;;;;;;;0.50;0.43;;;;;;;;;;10258837;28;20030;-62
2021/08/27 20:28:10;;;;;;;1.23;0.50;;;;;;;;;;10268116;28;20112;-62
2021/08/27 20:33:08;;;;;;;1.00;0.40;;;;;;;;;;10257774;28;20045;-61
2021/08/27 20:38:05;;;;;;;1.20;0.53;;;;;;;;;;10293355;28;20383;-64
2021/08/27 20:43:03;;;;;;;1.17;0.63;;;;;;;;;;10267889;28;20091;-62
2021/08/27 20:48:01;;;;;;;2.07;0.73;;;;;;;;;;10248762;28;20117;-62
2021/08/27 20:52:59;;;;;;;0.50;0.50;;;;;;;;;;10282182;28;20399;-64
2021/08/27 20:57:56;;;;;;;0.40;0.40;;;;;;;;;;10284171;28;20061;-61
2021/08/27 21:02:53;;;;;;;1.03;0.63;;;;;;;;;;10281386;28;20314;-61
2021/08/27 21:07:51;;;;;;;0.47;0.47;;;;;;;;;;10253550;28;20044;-61
2021/08/27 21:12:48;;;;;;;2.67;0.60;;;;;;;;;;10270771;28;20038;-61
2021/08/27 21:17:47;;;;;;;1.50;0.77;;;;;;;;;;10272947;28;20033;-65
2021/08/27 21:22:44;;;;;;;1.02;0.50;;;;;;;;;;10247689;28;20049;-65
2021/08/27 21:27:42;;;;;;;1.33;0.60;;;;;;;;;;10263706;28;20034;-63
2021/08/27 21:32:39;;;;;;;1.20;1.00;;;;;;;;;;10292163;28;20033;-63
2021/08/27 21:37:37;;;;;;;2.73;1.30;;;;;;;;;;10285266;28;20087;-64
2021/08/27 21:42:34;;;;;;;0.73;0.60;;;;;;;;;;10278333;28;20061;-63
2021/08/27 21:47:32;;;;;;;4.30;0.97;;;;;;;;;;10263051;28;20520;-68
2021/08/27 21:52:29;;;;;;;0.57;0.57;;;;;;;;;;10249364;28;20033;-65
2021/08/27 21:57:26;;;;;;;1.63;0.80;;;;;;;;;;10268225;28;20044;-64
2021/08/27 22:02:24;;;;;;;3.23;1.13;;;;;;;;;;10254496;28;20046;-65
2021/08/27 22:07:21;;;;;;;0.60;0.40;;;;;;;;;;10264789;28;20044;-64
2021/08/27 22:12:18;;;;;;;2.00;0.93;;;;;;;;;;10290957;28;20041;-66
2021/08/27 22:17:16;;;;;;;2.93;0.90;;;;;;;;;;10275310;28;20076;-65
2021/08/27 22:22:13;;;;;;;1.23;0.83;;;;;;;;;;10267255;28;20049;-65
2021/08/27 22:27:11;;;;;;;3.60;0.63;;;;;;;;;;10288778;28;20030;-64
2021/08/27 22:32:08;;;;;;;1.43;1.13;;;;;;;;;;10276504;28;20041;-64
2021/08/27 22:37:05;;;;;;;1.23;1.13;;;;;;;;;;10253313;28;20133;-63
2021/08/27 22:42:03;;;;;;;0.60;0.53;;;;;;;;;;10280362;28;20490;-62
2021/08/27 22:47:01;;;;;;;2.95;1.40;;;;;;;;;;10284173;28;20041;-64
2021/08/27 22:51:59;;;;;;;3.17;1.77;;;;;;;;;;10289932;28;20034;-65
2021/08/27 22:56:56;;;;;;;1.17;0.70;;;;;;;;;;10259290;28;20038;-64
2021/08/27 23:01:53;;;;;;;1.80;1.17;;;;;;;;;;10280430;28;20079;-65
2021/08/27 23:06:51;;;;;;;1.90;1.17;;;;;;;;;;10290590;28;20146;-64
2021/08/27 23:11:48;;;;;;;3.27;1.27;;;;;;;;;;10270417;28;20530;-64
2021/08/27 23:16:46;;;;;;;2.33;1.73;;;;;;;;;;10263041;28;20041;-66
2021/08/27 23:21:43;;;;;;;3.07;1.60;;;;;;;;;;10260824;28;20132;-65
2021/08/27 23:26:40;;;;;;;2.07;1.50;;;;;;;;;;10277467;28;20042;-65
2021/08/27 23:31:38;;;;;;;2.23;1.00;;;;;;;;;;10287911;28;20514;-64
2021/08/27 23:36:35;;;;;;;2.67;1.20;;;;;;;;;;10285526;28;20495;-66
2021/08/27 23:41:33;;;;;;;2.73;1.83;;;;;;;;;;10280098;28;20446;-66
2021/08/27 23:46:30;;;;;;;4.70;1.83;;;;;;;;;;10287374;28;20502;-66
2021/08/27 23:51:27;;;;;;;2.60;1.37;;;;;;;;;;10280301;28;20048;-63
2021/08/27 23:56:25;;;;;;;2.43;1.27;;;;;;;;;;10295114;28;20107;-65
